sensor_id;sensor_type;location;lat;lon;timestamp;P1;durP1;ratioP1;P2;durP2;ratioP2
20365;SDS011;10341;49.894;8.822;2023-06-14T00:04:53;5.93;;;4.73;;
20365;SDS011;10341;49.894;8.822;2023-06-14T00:10:12;6.00;;;5.20;;
20365;SDS011;10341;49.894;8.822;2023-06-14T00:15:33;7.07;;;5.30;;
20365;SDS011;10341;49.894;8.822;2023-06-14T00:20:52;8.83;;;5.33;;
20365;SDS011;10341;49.894;8.822;2023-06-14T00:26:12;8.33;;;5.90;;
20365;SDS011;10341;49.894;8.822;2023-06-14T00:31:33;6.47;;;5.18;;
20365;SDS011;10341;49.894;8.822;2023-06-14T00:36:52;7.38;;;4.95;;
20365;SDS011;10341;49.894;8.822;2023-06-14T00:42:22;6.70;;;5.50;;
20365;SDS011;10341;49.894;8.822;2023-06-14T00:47:45;8.38;;;5.53;;
20365;SDS011;10341;49.894;8.822;2023-06-14T00:53:04;10.43;;;6.83;;
20365;SDS011;10341;49.894;8.822;2023-06-14T00:58:24;8.07;;;5.30;;
20365;SDS011;10341;49.894;8.822;2023-06-14T01:03:45;7.25;;;5.80;;
20365;SDS011;10341;49.894;8.822;2023-06-14T01:14:47;8.32;;;5.60;;
20365;SDS011;10341;49.894;8.822;2023-06-14T01:20:12;7.18;;;5.57;;
20365;SDS011;10341;49.894;8.822;2023-06-14T01:25:33;6.70;;;5.57;;
20365;SDS011;10341;49.894;8.822;2023-06-14T01:30:54;8.65;;;5.90;;
20365;SDS011;10341;49.894;8.822;2023-06-14T01:36:14;7.80;;;5.60;;
20365;SDS011;10341;49.894;8.822;2023-06-14T01:41:35;6.88;;;5.38;;
20365;SDS011;10341;49.894;8.822;2023-06-14T01:46:55;8.38;;;6.22;;
20365;SDS011;10341;49.894;8.822;2023-06-14T01:52:15;8.93;;;5.75;;
20365;SDS011;10341;49.894;8.822;2023-06-14T01:57:35;10.50;;;6.13;;
20365;SDS011;10341;49.894;8.822;2023-06-14T02:02:55;8.30;;;5.80;;
20365;SDS011;10341;49.894;8.822;2023-06-14T02:08:14;7.13;;;5.60;;
20365;SDS011;10341;49.894;8.822;2023-06-14T02:13:34;7.25;;;5.95;;
20365;SDS011;10341;49.894;8.822;2023-06-14T02:18:54;7.13;;;5.17;;
20365;SDS011;10341;49.894;8.822;2023-06-14T02:24:16;9.93;;;6.53;;
20365;SDS011;10341;49.894;8.822;2023-06-14T02:29:35;8.18;;;6.32;;
20365;SDS011;10341;49.894;8.822;2023-06-14T02:34:56;8.43;;;6.63;;
20365;SDS011;10341;49.894;8.822;2023-06-14T02:40:15;6.73;;;5.40;;
20365;SDS011;10341;49.894;8.822;2023-06-14T02:45:35;10.77;;;5.80;;
20365;SDS011;10341;49.894;8.822;2023-06-14T02:50:54;7.97;;;5.80;;
20365;SDS011;10341;49.894;8.822;2023-06-14T02:56:15;7.43;;;5.78;;
20365;SDS011;10341;49.894;8.822;2023-06-14T03:01:37;10.73;;;6.32;;
20365;SDS011;10341;49.894;8.822;2023-06-14T03:07:00;10.07;;;6.40;;
20365;SDS011;10341;49.894;8.822;2023-06-14T03:12:22;9.05;;;6.32;;
20365;SDS011;10341;49.894;8.822;2023-06-14T03:17:43;9.30;;;6.60;;
20365;SDS011;10341;49.894;8.822;2023-06-14T03:23:05;12.07;;;6.90;;
20365;SDS011;10341;49.894;8.822;2023-06-14T03:28:26;9.68;;;6.75;;
20365;SDS011;10341;49.894;8.822;2023-06-14T03:33:46;9.98;;;6.30;;
20365;SDS011;10341;49.894;8.822;2023-06-14T03:39:06;9.63;;;5.90;;
20365;SDS011;10341;49.894;8.822;2023-06-14T03:44:26;6.72;;;4.18;;
20365;SDS011;10341;49.894;8.822;2023-06-14T03:49:45;10.10;;;5.82;;
20365;SDS011;10341;49.894;8.822;2023-06-14T03:55:05;8.13;;;6.05;;
20365;SDS011;10341;49.894;8.822;2023-06-14T04:00:26;6.93;;;5.47;;
20365;SDS011;10341;49.894;8.822;2023-06-14T04:05:46;6.40;;;4.57;;
20365;SDS011;10341;49.894;8.822;2023-06-14T04:11:08;6.78;;;5.00;;
20365;SDS011;10341;49.894;8.822;2023-06-14T04:16:28;6.60;;;4.90;;
20365;SDS011;10341;49.894;8.822;2023-06-14T04:21:47;6.47;;;4.65;;
20365;SDS011;10341;49.894;8.822;2023-06-14T04:27:09;7.05;;;4.60;;
20365;SDS011;10341;49.894;8.822;2023-06-14T04:32:30;6.40;;;4.70;;
20365;SDS011;10341;49.894;8.822;2023-06-14T04:37:52;5.85;;;4.22;;
20365;SDS011;10341;49.894;8.822;2023-06-14T04:43:12;8.25;;;4.95;;
20365;SDS011;10341;49.894;8.822;2023-06-14T04:48:33;6.25;;;4.32;;
20365;SDS011;10341;49.894;8.822;2023-06-14T04:53:53;7.27;;;5.37;;
20365;SDS011;10341;49.894;8.822;2023-06-14T04:59:19;7.60;;;5.00;;
20365;SDS011;10341;49.894;8.822;2023-06-14T05:04:38;6.20;;;4.38;;
20365;SDS011;10341;49.894;8.822;2023-06-14T05:10:01;5.35;;;4.15;;
20365;SDS011;10341;49.894;8.822;2023-06-14T05:15:21;8.13;;;4.57;;
20365;SDS011;10341;49.894;8.822;2023-06-14T05:20:44;4.72;;;3.80;;
20365;SDS011;10341;49.894;8.822;2023-06-14T05:26:03;5.93;;;3.80;;
20365;SDS011;10341;49.894;8.822;2023-06-14T05:36:43;5.30;;;3.95;;
20365;SDS011;10341;49.894;8.822;2023-06-14T05:42:02;5.50;;;3.90;;
20365;SDS011;10341;49.894;8.822;2023-06-14T05:47:22;5.22;;;3.85;;
20365;SDS011;10341;49.894;8.822;2023-06-14T05:52:42;4.53;;;3.47;;
20365;SDS011;10341;49.894;8.822;2023-06-14T05:58:01;4.40;;;3.40;;
20365;SDS011;10341;49.894;8.822;2023-06-14T06:03:21;4.93;;;3.75;;
20365;SDS011;10341;49.894;8.822;2023-06-14T06:08:41;4.22;;;3.45;;
20365;SDS011;10341;49.894;8.822;2023-06-14T06:14:01;4.57;;;3.63;;
20365;SDS011;10341;49.894;8.822;2023-06-14T06:19:20;4.67;;;3.57;;
20365;SDS011;10341;49.894;8.822;2023-06-14T06:24:40;7.18;;;3.38;;
20365;SDS011;10341;49.894;8.822;2023-06-14T06:30:00;5.53;;;3.47;;
20365;SDS011;10341;49.894;8.822;2023-06-14T06:35:19;5.05;;;3.42;;
20365;SDS011;10341;49.894;8.822;2023-06-14T06:40:39;4.40;;;3.63;;
20365;SDS011;10341;49.894;8.822;2023-06-14T06:45:58;5.47;;;3.63;;
20365;SDS011;10341;49.894;8.822;2023-06-14T06:51:18;4.70;;;3.60;;
20365;SDS011;10341;49.894;8.822;2023-06-14T06:56:37;4.25;;;3.50;;
20365;SDS011;10341;49.894;8.822;2023-06-14T07:01:57;4.80;;;3.50;;
20365;SDS011;10341;49.894;8.822;2023-06-14T07:07:16;6.57;;;3.67;;
20365;SDS011;10341;49.894;8.822;2023-06-14T07:12:36;5.40;;;3.03;;
20365;SDS011;10341;49.894;8.822;2023-06-14T07:17:58;6.03;;;3.78;;
20365;SDS011;10341;49.894;8.822;2023-06-14T07:23:18;4.05;;;2.80;;
20365;SDS011;10341;49.894;8.822;2023-06-14T07:28:37;4.38;;;2.88;;
20365;SDS011;10341;49.894;8.822;2023-06-14T07:33:57;5.70;;;2.83;;
20365;SDS011;10341;49.894;8.822;2023-06-14T07:39:17;2.88;;;2.47;;
20365;SDS011;10341;49.894;8.822;2023-06-14T07:44:36;3.78;;;2.63;;
20365;SDS011;10341;49.894;8.822;2023-06-14T07:49:56;5.20;;;2.50;;
20365;SDS011;10341;49.894;8.822;2023-06-14T07:55:15;4.13;;;2.33;;
20365;SDS011;10341;49.894;8.822;2023-06-14T08:00:35;2.72;;;2.28;;
20365;SDS011;10341;49.894;8.822;2023-06-14T08:05:54;2.67;;;2.10;;
20365;SDS011;10341;49.894;8.822;2023-06-14T08:11:14;4.38;;;2.00;;
20365;SDS011;10341;49.894;8.822;2023-06-14T08:21:52;4.93;;;1.80;;
20365;SDS011;10341;49.894;8.822;2023-06-14T08:27:13;3.53;;;1.60;;
20365;SDS011;10341;49.894;8.822;2023-06-14T08:32:34;4.95;;;1.75;;
20365;SDS011;10341;49.894;8.822;2023-06-14T08:37:54;3.00;;;1.60;;
20365;SDS011;10341;49.894;8.822;2023-06-14T08:43:14;2.28;;;1.60;;
20365;SDS011;10341;49.894;8.822;2023-06-14T08:48:34;1.58;;;1.48;;
20365;SDS011;10341;49.894;8.822;2023-06-14T08:53:54;2.05;;;1.60;;
20365;SDS011;10341;49.894;8.822;2023-06-14T08:59:16;1.48;;;1.30;;
20365;SDS011;10341;49.894;8.822;2023-06-14T09:04:36;2.55;;;1.20;;
20365;SDS011;10341;49.894;8.822;2023-06-14T09:10:09;1.27;;;1.17;;
20365;SDS011;10341;49.894;8.822;2023-06-14T09:15:32;2.17;;;1.45;;
20365;SDS011;10341;49.894;8.822;2023-06-14T09:20:52;2.15;;;1.40;;
20365;SDS011;10341;49.894;8.822;2023-06-14T09:26:13;1.58;;;1.48;;
20365;SDS011;10341;49.894;8.822;2023-06-14T09:31:34;1.98;;;1.40;;
20365;SDS011;10341;49.894;8.822;2023-06-14T09:36:54;2.33;;;1.10;;
20365;SDS011;10341;49.894;8.822;2023-06-14T09:42:17;2.28;;;1.52;;
20365;SDS011;10341;49.894;8.822;2023-06-14T09:47:37;1.60;;;1.50;;
20365;SDS011;10341;49.894;8.822;2023-06-14T09:53:00;2.10;;;1.30;;
20365;SDS011;10341;49.894;8.822;2023-06-14T09:58:22;1.30;;;1.20;;
20365;SDS011;10341;49.894;8.822;2023-06-14T10:03:43;2.05;;;1.17;;
20365;SDS011;10341;49.894;8.822;2023-06-14T10:09:06;1.23;;;1.13;;
20365;SDS011;10341;49.894;8.822;2023-06-14T10:14:28;2.25;;;1.60;;
20365;SDS011;10341;49.894;8.822;2023-06-14T10:19:50;2.17;;;1.52;;
20365;SDS011;10341;49.894;8.822;2023-06-14T10:25:25;1.55;;;1.45;;
20365;SDS011;10341;49.894;8.822;2023-06-14T10:36:26;3.67;;;1.70;;
20365;SDS011;10341;49.894;8.822;2023-06-14T10:41:55;1.67;;;1.52;;
20365;SDS011;10341;49.894;8.822;2023-06-14T10:52:48;3.05;;;1.92;;
20365;SDS011;10341;49.894;8.822;2023-06-14T10:58:08;1.85;;;1.75;;
20365;SDS011;10341;49.894;8.822;2023-06-14T11:03:43;2.63;;;1.85;;
20365;SDS011;10341;49.894;8.822;2023-06-14T11:09:19;2.10;;;1.75;;
20365;SDS011;10341;49.894;8.822;2023-06-14T11:14:59;2.00;;;1.80;;
20365;SDS011;10341;49.894;8.822;2023-06-14T11:20:19;2.00;;;1.80;;
20365;SDS011;10341;49.894;8.822;2023-06-14T11:25:38;3.47;;;1.80;;
20365;SDS011;10341;49.894;8.822;2023-06-14T11:31:01;3.33;;;1.90;;
20365;SDS011;10341;49.894;8.822;2023-06-14T11:36:22;2.83;;;2.05;;
20365;SDS011;10341;49.894;8.822;2023-06-14T11:41:46;2.40;;;1.98;;
20365;SDS011;10341;49.894;8.822;2023-06-14T11:47:05;2.90;;;2.40;;
20365;SDS011;10341;49.894;8.822;2023-06-14T11:52:25;2.15;;;1.95;;
20365;SDS011;10341;49.894;8.822;2023-06-14T11:57:46;4.18;;;2.28;;
20365;SDS011;10341;49.894;8.822;2023-06-14T12:03:06;2.70;;;2.10;;
20365;SDS011;10341;49.894;8.822;2023-06-14T12:08:31;2.38;;;1.92;;
20365;SDS011;10341;49.894;8.822;2023-06-14T12:13:58;2.05;;;1.80;;
20365;SDS011;10341;49.894;8.822;2023-06-14T12:19:19;4.00;;;1.90;;
20365;SDS011;10341;49.894;8.822;2023-06-14T12:24:38;2.10;;;1.90;;
20365;SDS011;10341;49.894;8.822;2023-06-14T12:29:58;2.85;;;2.20;;
20365;SDS011;10341;49.894;8.822;2023-06-14T12:35:21;4.95;;;2.10;;
20365;SDS011;10341;49.894;8.822;2023-06-14T12:40:41;3.05;;;2.22;;
20365;SDS011;10341;49.894;8.822;2023-06-14T12:46:01;5.20;;;2.08;;
20365;SDS011;10341;49.894;8.822;2023-06-14T12:51:20;2.45;;;1.95;;
20365;SDS011;10341;49.894;8.822;2023-06-14T12:56:41;2.13;;;1.92;;
20365;SDS011;10341;49.894;8.822;2023-06-14T13:02:15;4.63;;;2.10;;
20365;SDS011;10341;49.894;8.822;2023-06-14T13:07:36;2.30;;;2.00;;
20365;SDS011;10341;49.894;8.822;2023-06-14T13:18:16;2.55;;;2.20;;
20365;SDS011;10341;49.894;8.822;2023-06-14T13:23:36;2.67;;;2.10;;
20365;SDS011;10341;49.894;8.822;2023-06-14T13:34:15;5.22;;;2.10;;
20365;SDS011;10341;49.894;8.822;2023-06-14T13:44:56;2.22;;;1.75;;
20365;SDS011;10341;49.894;8.822;2023-06-14T13:50:16;3.50;;;1.70;;
20365;SDS011;10341;49.894;8.822;2023-06-14T14:00:54;3.90;;;1.88;;
20365;SDS011;10341;49.894;8.822;2023-06-14T14:11:34;3.03;;;2.10;;
20365;SDS011;10341;49.894;8.822;2023-06-14T14:22:13;3.47;;;1.90;;
20365;SDS011;10341;49.894;8.822;2023-06-14T14:27:33;1.70;;;1.60;;
20365;SDS011;10341;49.894;8.822;2023-06-14T14:38:12;3.47;;;1.98;;
20365;SDS011;10341;49.894;8.822;2023-06-14T14:43:34;2.00;;;1.80;;
20365;SDS011;10341;49.894;8.822;2023-06-14T14:54:12;3.42;;;2.20;;
20365;SDS011;10341;49.894;8.822;2023-06-14T15:04:51;2.00;;;1.67;;
20365;SDS011;10341;49.894;8.822;2023-06-14T15:15:30;2.07;;;1.63;;
20365;SDS011;10341;49.894;8.822;2023-06-14T15:20:50;1.90;;;1.40;;
20365;SDS011;10341;49.894;8.822;2023-06-14T15:31:29;2.55;;;1.60;;
20365;SDS011;10341;49.894;8.822;2023-06-14T15:36:49;2.05;;;1.63;;
20365;SDS011;10341;49.894;8.822;2023-06-14T15:42:08;1.40;;;1.30;;
20365;SDS011;10341;49.894;8.822;2023-06-14T15:47:28;3.35;;;1.60;;
20365;SDS011;10341;49.894;8.822;2023-06-14T15:52:47;4.13;;;1.70;;
20365;SDS011;10341;49.894;8.822;2023-06-14T15:58:07;1.75;;;1.60;;
20365;SDS011;10341;49.894;8.822;2023-06-14T16:03:26;2.08;;;1.42;;
20365;SDS011;10341;49.894;8.822;2023-06-14T16:08:46;1.60;;;1.50;;
20365;SDS011;10341;49.894;8.822;2023-06-14T16:19:25;3.67;;;1.80;;
20365;SDS011;10341;49.894;8.822;2023-06-14T16:24:44;2.50;;;1.80;;
20365;SDS011;10341;49.894;8.822;2023-06-14T16:30:04;1.90;;;1.70;;
20365;SDS011;10341;49.894;8.822;2023-06-14T16:35:24;1.70;;;1.40;;
20365;SDS011;10341;49.894;8.822;2023-06-14T16:40:43;1.75;;;1.60;;
20365;SDS011;10341;49.894;8.822;2023-06-14T16:46:03;2.50;;;1.80;;
20365;SDS011;10341;49.894;8.822;2023-06-14T16:51:23;2.22;;;1.88;;
20365;SDS011;10341;49.894;8.822;2023-06-14T16:56:44;3.60;;;1.42;;
20365;SDS011;10341;49.894;8.822;2023-06-14T17:02:04;1.85;;;1.50;;
20365;SDS011;10341;49.894;8.822;2023-06-14T17:07:23;1.80;;;1.70;;
20365;SDS011;10341;49.894;8.822;2023-06-14T17:12:43;1.85;;;1.60;;
20365;SDS011;10341;49.894;8.822;2023-06-14T17:18:03;4.28;;;1.98;;
20365;SDS011;10341;49.894;8.822;2023-06-14T17:28:42;2.55;;;1.80;;
20365;SDS011;10341;49.894;8.822;2023-06-14T17:34:01;3.63;;;1.67;;
20365;SDS011;10341;49.894;8.822;2023-06-14T17:39:21;2.05;;;1.80;;
20365;SDS011;10341;49.894;8.822;2023-06-14T17:44:41;2.00;;;1.80;;
20365;SDS011;10341;49.894;8.822;2023-06-14T17:55:21;1.80;;;1.70;;
20365;SDS011;10341;49.894;8.822;2023-06-14T18:00:41;2.92;;;2.13;;
20365;SDS011;10341;49.894;8.822;2023-06-14T18:06:00;1.90;;;1.80;;
20365;SDS011;10341;49.894;8.822;2023-06-14T18:16:39;2.15;;;1.95;;
20365;SDS011;10341;49.894;8.822;2023-06-14T18:27:18;2.42;;;1.60;;
20365;SDS011;10341;49.894;8.822;2023-06-14T18:32:38;4.60;;;2.20;;
20365;SDS011;10341;49.894;8.822;2023-06-14T18:37:59;2.22;;;1.80;;
20365;SDS011;10341;49.894;8.822;2023-06-14T18:43:18;2.35;;;2.05;;
20365;SDS011;10341;49.894;8.822;2023-06-14T18:48:38;2.23;;;2.00;;
20365;SDS011;10341;49.894;8.822;2023-06-14T18:53:57;3.30;;;2.33;;
20365;SDS011;10341;49.894;8.822;2023-06-14T18:59:20;1.92;;;1.83;;
20365;SDS011;10341;49.894;8.822;2023-06-14T19:04:39;2.35;;;2.10;;
20365;SDS011;10341;49.894;8.822;2023-06-14T19:15:19;2.78;;;2.28;;
20365;SDS011;10341;49.894;8.822;2023-06-14T19:20:38;3.45;;;2.35;;
20365;SDS011;10341;49.894;8.822;2023-06-14T19:25:58;3.08;;;2.55;;
20365;SDS011;10341;49.894;8.822;2023-06-14T19:31:18;2.72;;;2.33;;
20365;SDS011;10341;49.894;8.822;2023-06-14T19:36:37;3.50;;;2.40;;
20365;SDS011;10341;49.894;8.822;2023-06-14T19:41:56;3.37;;;2.20;;
20365;SDS011;10341;49.894;8.822;2023-06-14T19:47:15;2.50;;;2.30;;
20365;SDS011;10341;49.894;8.822;2023-06-14T19:52:34;2.45;;;2.10;;
20365;SDS011;10341;49.894;8.822;2023-06-14T19:57:54;4.23;;;2.50;;
20365;SDS011;10341;49.894;8.822;2023-06-14T20:03:13;2.63;;;2.42;;
20365;SDS011;10341;49.894;8.822;2023-06-14T20:08:33;2.67;;;2.42;;
20365;SDS011;10341;49.894;8.822;2023-06-14T20:13:52;2.47;;;2.28;;
20365;SDS011;10341;49.894;8.822;2023-06-14T20:19:11;4.75;;;2.78;;
20365;SDS011;10341;49.894;8.822;2023-06-14T20:24:30;4.88;;;2.53;;
20365;SDS011;10341;49.894;8.822;2023-06-14T20:29:50;2.83;;;2.55;;
20365;SDS011;10341;49.894;8.822;2023-06-14T20:35:11;3.05;;;2.53;;
20365;SDS011;10341;49.894;8.822;2023-06-14T20:40:31;2.72;;;2.50;;
20365;SDS011;10341;49.894;8.822;2023-06-14T20:45:51;2.97;;;2.67;;
20365;SDS011;10341;49.894;8.822;2023-06-14T20:51:13;9.75;;;5.47;;
20365;SDS011;10341;49.894;8.822;2023-06-14T20:56:33;4.80;;;3.67;;
20365;SDS011;10341;49.894;8.822;2023-06-14T21:01:52;3.83;;;2.80;;
20365;SDS011;10341;49.894;8.822;2023-06-14T21:07:12;3.40;;;2.67;;
20365;SDS011;10341;49.894;8.822;2023-06-14T21:12:31;2.65;;;2.20;;
20365;SDS011;10341;49.894;8.822;2023-06-14T21:17:51;2.95;;;2.63;;
20365;SDS011;10341;49.894;8.822;2023-06-14T21:23:13;2.78;;;2.58;;
20365;SDS011;10341;49.894;8.822;2023-06-14T21:28:33;4.68;;;2.67;;
20365;SDS011;10341;49.894;8.822;2023-06-14T21:33:52;2.95;;;2.65;;
20365;SDS011;10341;49.894;8.822;2023-06-14T21:39:11;3.25;;;2.70;;
20365;SDS011;10341;49.894;8.822;2023-06-14T21:44:30;3.55;;;3.25;;
20365;SDS011;10341;49.894;8.822;2023-06-14T21:49:50;2.60;;;2.40;;
20365;SDS011;10341;49.894;8.822;2023-06-14T21:55:09;3.72;;;2.60;;
20365;SDS011;10341;49.894;8.822;2023-06-14T22:00:28;3.50;;;2.67;;
20365;SDS011;10341;49.894;8.822;2023-06-14T22:05:47;3.83;;;3.00;;
20365;SDS011;10341;49.894;8.822;2023-06-14T22:11:07;2.97;;;2.65;;
20365;SDS011;10341;49.894;8.822;2023-06-14T22:16:26;3.13;;;2.83;;
20365;SDS011;10341;49.894;8.822;2023-06-14T22:21:46;3.57;;;3.27;;
20365;SDS011;10341;49.894;8.822;2023-06-14T22:27:09;3.17;;;2.88;;
20365;SDS011;10341;49.894;8.822;2023-06-14T22:32:28;3.95;;;2.72;;
20365;SDS011;10341;49.894;8.822;2023-06-14T22:37:48;3.93;;;3.23;;
20365;SDS011;10341;49.894;8.822;2023-06-14T22:43:07;4.00;;;3.13;;
20365;SDS011;10341;49.894;8.822;2023-06-14T22:48:27;4.43;;;3.20;;
20365;SDS011;10341;49.894;8.822;2023-06-14T22:53:46;5.60;;;3.23;;
20365;SDS011;10341;49.894;8.822;2023-06-14T22:59:07;3.63;;;3.22;;
20365;SDS011;10341;49.894;8.822;2023-06-14T23:04:26;3.77;;;3.37;;
20365;SDS011;10341;49.894;8.822;2023-06-14T23:09:46;5.13;;;2.97;;
20365;SDS011;10341;49.894;8.822;2023-06-14T23:15:06;4.13;;;2.97;;
20365;SDS011;10341;49.894;8.822;2023-06-14T23:20:26;3.45;;;3.00;;
20365;SDS011;10341;49.894;8.822;2023-06-14T23:25:47;4.63;;;3.42;;
20365;SDS011;10341;49.894;8.822;2023-06-14T23:31:07;3.57;;;2.93;;
20365;SDS011;10341;49.894;8.822;2023-06-14T23:36:27;8.50;;;3.20;;
20365;SDS011;10341;49.894;8.822;2023-06-14T23:41:49;3.88;;;3.13;;
20365;SDS011;10341;49.894;8.822;2023-06-14T23:47:11;6.07;;;3.50;;
20365;SDS011;10341;49.894;8.822;2023-06-14T23:52:30;4.20;;;3.17;;
20365;SDS011;10341;49.894;8.822;2023-06-14T23:57:50;7.25;;;2.97;;
